createdAt,value
2023-04-29T00:03:29.518Z,100370.97
2023-04-29T00:08:56.069Z,100369.96
2023-04-29T00:13:59.453Z,100370.39
2023-04-29T00:19:02.722Z,100365.41
2023-04-29T00:24:06.294Z,100363.20
2023-04-29T00:29:09.608Z,100359.73
2023-04-29T00:34:13.188Z,100357.37
2023-04-29T00:39:16.540Z,100353.15
2023-04-29T00:44:19.909Z,100352.27
2023-04-29T00:49:23.454Z,100346.20
2023-04-29T00:54:26.855Z,100341.80
2023-04-29T00:59:32.505Z,100341.57
2023-04-29T01:04:36.354Z,100335.06
2023-04-29T01:10:25.215Z,100338.25
2023-04-29T01:15:39.833Z,100339.71
2023-04-29T01:20:46.233Z,100342.88
2023-04-29T01:25:49.824Z,100340.98
2023-04-29T01:31:19.866Z,100338.75
2023-04-29T01:36:35.668Z,100342.40
2023-04-29T01:41:59.182Z,100340.27
2023-04-29T01:47:10.591Z,100340.15
2023-04-29T01:52:19.265Z,100340.05
2023-04-29T01:57:32.545Z,100336.52
2023-04-29T02:02:55.087Z,100335.58
2023-04-29T02:08:20.754Z,100338.05
2023-04-29T02:13:24.450Z,100332.20
2023-04-29T02:19:01.361Z,100330.20
2023-04-29T02:24:04.942Z,100329.41
2023-04-29T02:29:09.210Z,100331.00
2023-04-29T02:34:24.307Z,100325.12
2023-04-29T02:39:48.333Z,100324.83
2023-04-29T02:44:51.978Z,100317.36
2023-04-29T02:49:55.603Z,100316.27
2023-04-29T02:54:58.923Z,100314.14
2023-04-29T03:00:02.986Z,100314.66
2023-04-29T03:05:06.890Z,100309.14
2023-04-29T03:10:12.605Z,100308.63
2023-04-29T03:15:16.122Z,100306.76
2023-04-29T03:20:20.632Z,100305.58
2023-04-29T03:25:24.106Z,100300.25
2023-04-29T03:30:28.360Z,100296.48
2023-04-29T03:35:34.183Z,100303.92
2023-04-29T03:40:59.171Z,100304.23
2023-04-29T03:46:02.695Z,100302.44
2023-04-29T03:51:06.252Z,100307.33
2023-04-29T03:56:09.888Z,100308.82
2023-04-29T04:01:33.855Z,100308.94
2023-04-29T04:06:37.558Z,100308.60
2023-04-29T04:11:42.272Z,100306.89
2023-04-29T04:16:45.711Z,100304.11
2023-04-29T04:21:49.549Z,100295.11
2023-04-29T04:26:53.005Z,100287.61
2023-04-29T04:32:19.237Z,100287.84
2023-04-29T04:37:23.279Z,100285.07
2023-04-29T04:42:30.822Z,100291.46
2023-04-29T04:47:34.876Z,100287.84
2023-04-29T04:52:42.845Z,100285.52
2023-04-29T04:57:54.571Z,100284.73
2023-04-29T05:02:58.502Z,100282.50
2023-04-29T05:08:03.355Z,100279.73
2023-04-29T05:13:12.103Z,100288.51
2023-04-29T05:18:16.043Z,100292.36
2023-04-29T05:23:19.560Z,100284.33
2023-04-29T05:28:23.438Z,100279.36
2023-04-29T05:33:29.944Z,100274.48
2023-04-29T05:38:33.808Z,100271.06
2023-04-29T05:43:41.822Z,100266.56
2023-04-29T05:48:45.439Z,100266.34
2023-04-29T05:53:49.517Z,100268.95
2023-04-29T05:58:53.334Z,100264.02
2023-04-29T06:03:57.078Z,100267.01
2023-04-29T06:09:27.088Z,100266.00
2023-04-29T06:14:32.902Z,100263.40
2023-04-29T06:19:36.573Z,100262.99
2023-04-29T06:24:39.957Z,100259.66
2023-04-29T06:29:44.096Z,100259.20
2023-04-29T06:34:47.848Z,100258.70
2023-04-29T06:40:04.033Z,100255.27
2023-04-29T06:45:39.069Z,100252.42
2023-04-29T06:50:56.664Z,100256.21
2023-04-29T06:56:00.062Z,100257.05
2023-04-29T07:01:04.386Z,100253.79
2023-04-29T07:06:07.759Z,100251.45
2023-04-29T07:11:11.165Z,100246.72
2023-04-29T07:16:22.264Z,100241.98
2023-04-29T07:21:25.771Z,100242.60
2023-04-29T07:26:29.787Z,100238.04
2023-04-29T07:31:38.234Z,100239.04
2023-04-29T07:36:41.926Z,100239.34
2023-04-29T07:41:45.850Z,100239.39
2023-04-29T07:46:49.240Z,100239.14
2023-04-29T07:51:52.854Z,100236.88
2023-04-29T07:56:58.491Z,100239.11
2023-04-29T08:02:01.909Z,100245.38
2023-04-29T08:07:05.564Z,100245.08
2023-04-29T08:12:09.158Z,100244.23
2023-04-29T08:17:12.385Z,100240.64
2023-04-29T08:22:16.112Z,100239.70
2023-04-29T08:27:20.568Z,100235.95
2023-04-29T08:32:23.903Z,100234.73
2023-04-29T08:37:27.880Z,100230.35
2023-04-29T08:42:37.966Z,100228.17
2023-04-29T08:47:42.456Z,100222.41
2023-04-29T08:52:45.826Z,100220.70
2023-04-29T08:57:50.956Z,100223.48
2023-04-29T09:02:57.947Z,100220.98
2023-04-29T09:08:03.396Z,100216.34
2023-04-29T09:13:06.977Z,100215.77
2023-04-29T09:18:10.424Z,100211.65
2023-04-29T09:23:13.677Z,100212.81
2023-04-29T09:28:17.527Z,100211.54
2023-04-29T09:33:20.960Z,100208.95
2023-04-29T09:38:24.566Z,100213.08
2023-04-29T09:43:27.870Z,100203.71
2023-04-29T09:48:34.349Z,100199.62
2023-04-29T09:53:39.035Z,100196.86
2023-04-29T09:58:42.515Z,100188.98
2023-04-29T10:03:48.981Z,100188.56
2023-04-29T10:08:52.609Z,100179.13
2023-04-29T10:13:56.432Z,100171.49
2023-04-29T10:19:04.096Z,100171.81
2023-04-29T10:24:10.268Z,100159.39
2023-04-29T10:29:16.006Z,100163.77
2023-04-29T10:34:20.113Z,100158.92
2023-04-29T10:39:40.365Z,100148.48
2023-04-29T10:45:21.632Z,100143.46
2023-04-29T10:50:28.085Z,100142.86
2023-04-29T10:55:35.926Z,100139.00
2023-04-29T11:00:39.343Z,100135.77
2023-04-29T11:05:42.816Z,100137.35
2023-04-29T11:10:46.414Z,100132.14
2023-04-29T11:15:51.955Z,100128.27
2023-04-29T11:21:07.466Z,100119.03
2023-04-29T11:26:11.179Z,100119.34
2023-04-29T11:31:14.499Z,100115.55
2023-04-29T11:36:17.773Z,100114.89
2023-04-29T11:41:22.594Z,100112.55
2023-04-29T11:46:28.407Z,100104.67
2023-04-29T11:51:32.933Z,100096.63
2023-04-29T11:56:38.396Z,100091.77
2023-04-29T12:01:42.282Z,100090.51
2023-04-29T12:06:46.594Z,100092.08
2023-04-29T12:11:51.139Z,100087.21
2023-04-29T12:16:54.406Z,100080.73
2023-04-29T12:22:03.039Z,100082.66
2023-04-29T12:27:11.025Z,100082.02
2023-04-29T12:32:18.313Z,100068.99
2023-04-29T12:37:23.704Z,100073.80
2023-04-29T12:42:33.652Z,100073.55
2023-04-29T12:47:39.617Z,100063.05
2023-04-29T12:52:42.977Z,100064.55
2023-04-29T12:57:46.238Z,100058.39
2023-04-29T13:02:49.680Z,100060.23
2023-04-29T13:07:53.222Z,100057.13
2023-04-29T13:12:56.982Z,100051.17
2023-04-29T13:18:00.729Z,100050.49
2023-04-29T13:23:04.186Z,100048.30
2023-04-29T13:28:07.845Z,100050.39
2023-04-29T13:33:12.717Z,100042.98
2023-04-29T13:38:17.913Z,100039.31
2023-04-29T13:43:32.776Z,100039.41
2023-04-29T13:54:41.376Z,100042.24
2023-04-29T14:04:15.184Z,100032.46
2023-04-29T14:09:20.229Z,100027.45
2023-04-29T14:14:23.469Z,100024.12
2023-04-29T14:19:26.841Z,100024.27
2023-04-29T14:24:30.110Z,100020.25
2023-04-29T14:29:33.328Z,100020.98
2023-04-29T14:34:36.856Z,100017.85
2023-04-29T14:39:40.264Z,100015.94
2023-04-29T14:44:43.541Z,100016.58
2023-04-29T14:49:47.031Z,100014.34
2023-04-29T14:54:50.508Z,100013.81
2023-04-29T14:59:53.959Z,100011.17
2023-04-29T15:04:57.420Z,100013.23
2023-04-29T15:10:00.972Z,100013.29
2023-04-29T15:15:05.066Z,100016.58
2023-04-29T15:20:09.787Z,100017.61
2023-04-29T15:25:13.120Z,100018.94
2023-04-29T15:30:17.478Z,100021.94
2023-04-29T15:35:21.158Z,100020.91
2023-04-29T15:40:24.637Z,100020.58
2023-04-29T15:45:27.976Z,100020.55
2023-04-29T15:50:31.308Z,100013.25
2023-04-29T15:55:35.547Z,100007.11
2023-04-29T16:00:39.063Z,100005.86
2023-04-29T16:05:42.421Z,100002.23
2023-04-29T16:10:46.174Z,100003.92
2023-04-29T16:15:49.586Z,100004.89
2023-04-29T16:20:53.097Z,100009.30
2023-04-29T16:25:56.357Z,100011.80
2023-04-29T16:30:59.629Z,100009.77
2023-04-29T16:36:03.173Z,100014.48
2023-04-29T16:41:07.462Z,100018.77
2023-04-29T16:46:10.877Z,100019.13
2023-04-29T16:51:14.211Z,100027.20
2023-04-29T16:56:17.467Z,100030.79
2023-04-29T17:01:20.914Z,100034.81
2023-04-29T17:06:24.534Z,100037.66
2023-04-29T17:11:42.964Z,100046.11
2023-04-29T17:16:48.794Z,100049.36
2023-04-29T17:22:12.732Z,100054.99
2023-04-29T17:27:16.157Z,100054.48
2023-04-29T17:32:28.261Z,100053.27
2023-04-29T17:37:31.657Z,100057.82
2023-04-29T17:42:34.948Z,100059.40
2023-04-29T17:47:38.163Z,100062.95
2023-04-29T17:52:41.773Z,100060.67
2023-04-29T17:57:44.980Z,100063.20
2023-04-29T18:02:48.352Z,100060.39
2023-04-29T18:07:51.695Z,100062.81
2023-04-29T18:12:55.109Z,100067.15
2023-04-29T18:17:58.413Z,100066.83
2023-04-29T18:23:01.869Z,100072.83
2023-04-29T18:28:24.236Z,100075.09
2023-04-29T18:33:31.076Z,100075.77
2023-04-29T18:38:34.535Z,100076.44
2023-04-29T18:43:38.123Z,100082.43
2023-04-29T18:48:43.816Z,100083.56
2023-04-29T18:53:47.323Z,100087.15
2023-04-29T18:58:50.726Z,100086.78
2023-04-29T19:03:54.218Z,100091.09
2023-04-29T19:08:57.443Z,100092.23
2023-04-29T19:14:00.921Z,100092.79
2023-04-29T19:19:04.722Z,100095.64
2023-04-29T19:24:08.228Z,100100.36
2023-04-29T19:29:11.758Z,100097.11
2023-04-29T19:34:14.931Z,100103.46
2023-04-29T19:39:18.723Z,100102.13
2023-04-29T19:44:23.036Z,100107.80
2023-04-29T19:49:26.431Z,100108.91
2023-04-29T19:54:30.075Z,100105.98
2023-04-29T19:59:33.630Z,100105.23
2023-04-29T20:04:36.937Z,100102.36
2023-04-29T20:09:40.452Z,100106.45
2023-04-29T20:14:43.837Z,100100.38
2023-04-29T20:19:47.087Z,100096.30
2023-04-29T20:24:50.557Z,100100.28
2023-04-29T20:29:54.017Z,100099.33
2023-04-29T20:34:57.587Z,100100.88
2023-04-29T20:40:00.777Z,100102.06
2023-04-29T20:45:06.316Z,100102.39
2023-04-29T20:50:10.315Z,100103.76
2023-04-29T20:55:13.601Z,100099.80
2023-04-29T21:00:16.875Z,100098.53
2023-04-29T21:05:20.160Z,100097.73
2023-04-29T21:10:23.760Z,100102.63
2023-04-29T21:15:29.399Z,100106.65
2023-04-29T21:20:32.760Z,100110.80
2023-04-29T21:25:35.980Z,100112.50
2023-04-29T21:30:39.414Z,100113.04
2023-04-29T21:35:43.323Z,100103.65
2023-04-29T21:40:48.004Z,100097.67
2023-04-29T21:45:53.685Z,100096.09
2023-04-29T21:51:02.642Z,100101.24
2023-04-29T21:56:06.707Z,100101.71
2023-04-29T22:01:29.052Z,100105.27
2023-04-29T22:06:33.618Z,100105.61
2023-04-29T22:11:37.192Z,100106.23
2023-04-29T22:16:40.598Z,100105.09
2023-04-29T22:21:43.896Z,100106.02
2023-04-29T22:26:47.349Z,100108.90
2023-04-29T22:31:53.592Z,100109.56
2023-04-29T22:36:57.922Z,100109.89
2023-04-29T22:42:01.197Z,100118.91
2023-04-29T22:47:04.589Z,100125.10
2023-04-29T22:52:08.024Z,100120.65
2023-04-29T22:57:11.312Z,100118.23
2023-04-29T23:02:16.004Z,100122.73
2023-04-29T23:07:19.352Z,100119.69
2023-04-29T23:12:22.662Z,100117.27
2023-04-29T23:17:25.980Z,100111.91
2023-04-29T23:22:29.088Z,100107.84
2023-04-29T23:27:32.343Z,100107.15
2023-04-29T23:32:35.662Z,100103.39
2023-04-29T23:37:39.672Z,100105.18
2023-04-29T23:42:42.841Z,100104.56
2023-04-29T23:47:46.084Z,100097.20
2023-04-29T23:52:49.337Z,100100.02
2023-04-29T23:57:52.639Z,100103.86
